Time;durP1;ratioP1;P1;durP2;ratioP2;P2;SDS_P1;SDS_P2;PMS_P1;PMS_P2;Temp;Humidity;BMP_temperature;BMP_pressure;BME280_temperature;BME280_humidity;BME280_pressure;Samples;Min_cycle;Max_cycle;Signal;HPM_P1;HPM_P2
2024/03/21 00:01:04;;;;;;;10.63;5.40;;;9.30;98.00;;;;;;5053019;28;20553;-65
2024/03/21 00:03:34;;;;;;;9.73;5.03;;;9.40;98.00;;;;;;5053071;28;20460;-65
2024/03/21 00:06:00;;;;;;;9.80;5.30;;;9.20;98.00;;;;;;5051805;28;20458;-65
2024/03/21 00:08:27;;;;;;;11.37;5.50;;;9.20;98.00;;;;;;5053055;28;20480;-65
2024/03/21 00:10:53;;;;;;;10.50;5.07;;;9.10;98.00;;;;;;5053241;28;20450;-65
2024/03/21 00:13:20;;;;;;;9.13;5.10;;;9.00;98.00;;;;;;5052932;28;20470;-65
2024/03/21 00:15:48;;;;;;;9.67;5.13;;;9.20;98.00;;;;;;5052917;28;20473;-65
2024/03/21 00:18:16;;;;;;;9.40;5.20;;;9.10;98.00;;;;;;5052859;28;21007;-65
2024/03/21 00:20:43;;;;;;;9.40;5.17;;;9.10;98.00;;;;;;5052868;28;20511;-65
2024/03/21 00:23:10;;;;;;;8.40;5.00;;;9.20;98.00;;;;;;5052802;28;20485;-65
2024/03/21 00:25:36;;;;;;;14.20;5.80;;;9.20;98.00;;;;;;5050139;28;20449;-65
2024/03/21 00:28:04;;;;;;;8.70;5.10;;;9.10;98.00;;;;;;5052634;28;20468;-66
2024/03/21 00:30:30;;;;;;;9.23;4.83;;;9.10;98.00;;;;;;5052639;28;20752;-65
2024/03/21 00:32:59;;;;;;;16.40;5.20;;;8.90;98.00;;;;;;5052592;28;20774;-65
2024/03/21 00:35:25;;;;;;;14.33;5.33;;;8.90;98.00;;;;;;5052776;28;20462;-65
2024/03/21 00:37:52;;;;;;;10.87;5.10;;;8.90;98.00;;;;;;5052646;28;20464;-65
2024/03/21 00:40:18;;;;;;;8.70;5.10;;;8.90;98.00;;;;;;5051168;28;20943;-65
2024/03/21 00:42:46;;;;;;;8.30;4.73;;;8.90;98.00;;;;;;5052427;28;20575;-65
2024/03/21 00:45:12;;;;;;;8.50;5.20;;;8.90;98.00;;;;;;5052193;28;20545;-65
2024/03/21 00:47:39;;;;;;;8.77;5.00;;;9.00;98.00;;;;;;5051603;28;20549;-65
2024/03/21 00:50:08;;;;;;;10.60;5.70;;;9.10;98.00;;;;;;5050464;28;20453;-65
2024/03/21 00:52:35;;;;;;;11.83;5.63;;;9.00;98.00;;;;;;5051992;28;20463;-65
2024/03/21 00:55:03;;;;;;;10.73;5.20;;;8.90;98.00;;;;;;5051551;28;20450;-65
2024/03/21 00:57:30;;;;;;;10.00;4.80;;;8.80;98.00;;;;;;5050821;28;20465;-65
2024/03/21 00:59:57;;;;;;;8.33;4.97;;;8.90;98.00;;;;;;5050760;28;21020;-65
2024/03/21 01:02:26;;;;;;;8.07;4.53;;;8.90;98.00;;;;;;5051872;28;20484;-65
2024/03/21 01:04:52;;;;;;;9.30;4.60;;;8.90;98.00;;;;;;5051977;28;20801;-65
2024/03/21 01:07:22;;;;;;;9.80;4.70;;;8.90;98.00;;;;;;5050492;28;20471;-65
2024/03/21 01:09:48;;;;;;;10.40;5.00;;;8.80;98.00;;;;;;5051533;28;20461;-65
2024/03/21 01:12:16;;;;;;;11.07;5.30;;;9.10;98.00;;;;;;5051730;28;20465;-65
2024/03/21 01:14:42;;;;;;;11.10;5.70;;;9.40;98.00;;;;;;5050272;28;20500;-65
2024/03/21 01:17:09;;;;;;;10.63;4.57;;;9.40;98.00;;;;;;5051546;28;20548;-65
2024/03/21 01:19:37;;;;;;;6.60;4.10;;;9.40;98.00;;;;;;5051579;28;20465;-65
2024/03/21 01:22:04;;;;;;;6.70;4.20;;;9.30;98.00;;;;;;5051296;28;20489;-65
2024/03/21 01:24:32;;;;;;;7.67;4.40;;;9.20;98.00;;;;;;5051542;28;20920;-65
2024/03/21 01:26:59;;;;;;;9.07;4.70;;;9.00;98.00;;;;;;5051704;28;20617;-65
2024/03/21 01:29:25;;;;;;;8.13;4.20;;;8.90;98.00;;;;;;5051577;28;20858;-65
2024/03/21 01:31:53;;;;;;;6.00;4.00;;;8.90;98.00;;;;;;5051287;28;20474;-65
2024/03/21 01:34:19;;;;;;;7.33;4.00;;;8.90;98.00;;;;;;5051119;28;20493;-65
2024/03/21 01:36:47;;;;;;;6.40;3.93;;;8.90;98.00;;;;;;5051413;28;20482;-66
2024/03/21 01:39:15;;;;;;;8.70;3.90;;;8.80;98.00;;;;;;5051096;28;20465;-65
2024/03/21 01:41:44;;;;;;;8.20;4.40;;;8.80;98.00;;;;;;5049693;28;20487;-65
2024/03/21 01:44:15;;;;;;;7.30;4.30;;;8.70;98.00;;;;;;5051061;28;20461;-65
2024/03/21 01:46:42;;;;;;;8.63;4.23;;;8.60;98.00;;;;;;5049859;28;20458;-65
2024/03/21 01:49:09;;;;;;;8.17;4.40;;;8.50;98.00;;;;;;5050902;28;20946;-65
2024/03/21 01:51:37;;;;;;;10.80;5.10;;;8.40;98.00;;;;;;5051173;28;20998;-65
2024/03/21 01:54:06;;;;;;;9.00;5.00;;;8.30;98.00;;;;;;5049845;28;20479;-65
2024/03/21 01:56:33;;;;;;;8.07;4.63;;;8.40;98.00;;;;;;5049672;28;20521;-65
2024/03/21 01:59:08;;;;;;;10.80;5.00;;;8.40;98.00;;;;;;5050862;28;20458;-65
2024/03/21 02:01:36;;;;;;;10.20;5.33;;;8.40;98.00;;;;;;5032954;28;20466;-65
2024/03/21 02:04:05;;;;;;;9.50;5.00;;;8.40;98.00;;;;;;5049830;28;20544;-65
2024/03/21 02:06:34;;;;;;;8.90;4.80;;;8.40;98.00;;;;;;5049647;28;20953;-65
2024/03/21 02:09:01;;;;;;;11.57;5.43;;;8.50;98.00;;;;;;5049650;28;20455;-65
2024/03/21 02:11:29;;;;;;;9.90;5.27;;;8.30;98.00;;;;;;5050759;28;20464;-65
2024/03/21 02:13:56;;;;;;;10.10;5.37;;;8.30;98.00;;;;;;5050732;28;20539;-65
2024/03/21 02:16:24;;;;;;;10.27;5.27;;;8.20;98.00;;;;;;5049486;28;20476;-65
2024/03/21 02:18:53;;;;;;;8.50;5.10;;;8.20;98.00;;;;;;5050566;28;20923;-65
2024/03/21 02:24:06;;;;;;;10.13;5.20;;;8.10;98.00;;;;;;5050719;28;20500;-66
2024/03/21 02:26:32;;;;;;;12.67;4.80;;;8.10;98.00;;;;;;5050465;28;20496;-65
2024/03/21 02:29:00;;;;;;;11.77;5.27;;;8.00;98.00;;;;;;5050806;28;20487;-65
2024/03/21 02:31:27;;;;;;;7.77;4.60;;;8.00;98.00;;;;;;5050790;28;20451;-65
2024/03/21 02:33:53;;;;;;;9.40;4.57;;;8.00;98.00;;;;;;5050946;28;20450;-65
2024/03/21 02:36:21;;;;;;;8.00;4.60;;;8.10;98.00;;;;;;5051009;28;20827;-65
2024/03/21 02:38:47;;;;;;;9.33;5.00;;;8.20;98.00;;;;;;5049414;28;20461;-65
2024/03/21 02:41:15;;;;;;;10.03;4.70;;;8.10;98.00;;;;;;5050527;28;20453;-65
2024/03/21 02:43:42;;;;;;;8.67;4.60;;;8.20;98.00;;;;;;5050334;28;20490;-65
2024/03/21 02:46:09;;;;;;;7.97;4.50;;;8.20;98.00;;;;;;5050394;28;20520;-65
2024/03/21 02:48:35;;;;;;;9.87;4.60;;;8.30;98.00;;;;;;5049361;28;20451;-65
2024/03/21 02:51:02;;;;;;;8.23;4.43;;;8.30;98.00;;;;;;5050187;28;20512;-66
2024/03/21 02:53:29;;;;;;;8.53;4.63;;;8.40;98.00;;;;;;5050428;28;20450;-65
2024/03/21 02:55:56;;;;;;;8.53;4.33;;;8.40;98.00;;;;;;5050372;28;20988;-65
2024/03/21 02:58:23;;;;;;;7.00;4.33;;;8.30;98.00;;;;;;5048996;28;20566;-66
2024/03/21 03:00:50;;;;;;;9.57;4.80;;;8.50;98.00;;;;;;5050377;28;20460;-65
2024/03/21 03:03:16;;;;;;;9.20;4.80;;;8.60;98.00;;;;;;5050202;28;20544;-65
2024/03/21 03:05:44;;;;;;;9.70;3.97;;;8.60;98.00;;;;;;5049269;28;20898;-65
2024/03/21 03:08:10;;;;;;;6.93;4.00;;;8.80;98.00;;;;;;5050442;28;20464;-68
2024/03/21 03:10:37;;;;;;;6.87;3.90;;;8.80;98.00;;;;;;5050196;28;20883;-67
2024/03/21 03:13:04;;;;;;;8.00;4.50;;;8.90;98.00;;;;;;5053175;28;20458;-67
2024/03/21 03:15:32;;;;;;;10.40;4.73;;;8.90;98.00;;;;;;5053822;28;20465;-68
2024/03/21 03:17:59;;;;;;;8.40;4.13;;;9.00;98.00;;;;;;5053925;28;20852;-68
2024/03/21 03:20:26;;;;;;;8.63;5.10;;;8.90;98.00;;;;;;5053836;28;20492;-67
2024/03/21 03:22:52;;;;;;;8.47;4.30;;;8.90;98.00;;;;;;5052342;28;20533;-68
2024/03/21 03:25:20;;;;;;;7.30;4.20;;;8.70;98.00;;;;;;5035239;28;20460;-68
2024/03/21 03:27:46;;;;;;;8.23;4.23;;;8.70;98.00;;;;;;5053413;28;20510;-65
2024/03/21 03:30:15;;;;;;;7.30;4.10;;;8.60;98.00;;;;;;5053563;28;20458;-65
2024/03/21 03:32:47;;;;;;;7.30;4.10;;;8.60;98.00;;;;;;5053662;28;20503;-65
2024/03/21 03:38:00;;;;;;;7.47;4.10;;;8.80;98.00;;;;;;5053644;28;20934;-65
2024/03/21 03:40:27;;;;;;;8.87;4.47;;;8.80;98.00;;;;;;5052224;28;20482;-65
2024/03/21 03:42:54;;;;;;;8.73;4.53;;;8.80;98.00;;;;;;5053350;28;20484;-65
2024/03/21 03:45:22;;;;;;;10.77;4.23;;;8.80;98.00;;;;;;5054250;28;20995;-65
2024/03/21 03:47:50;;;;;;;8.27;4.27;;;8.80;98.00;;;;;;5053520;28;20985;-65
2024/03/21 03:50:18;;;;;;;7.17;4.30;;;8.70;98.00;;;;;;5054263;28;20468;-65
2024/03/21 03:52:45;;;;;;;8.80;4.70;;;8.80;98.00;;;;;;5052590;28;20523;-65
2024/03/21 03:55:11;;;;;;;8.37;4.43;;;8.90;98.00;;;;;;5053179;28;20461;-65
2024/03/21 03:57:38;;;;;;;8.43;4.50;;;8.90;98.00;;;;;;5053067;28;20508;-65
2024/03/21 04:00:06;;;;;;;9.00;4.70;;;8.80;98.00;;;;;;5053078;28;20454;-65
2024/03/21 04:02:35;;;;;;;9.00;4.63;;;8.70;98.00;;;;;;5053202;28;20520;-65
2024/03/21 04:05:02;;;;;;;7.50;4.30;;;8.60;98.00;;;;;;5053047;28;20499;-65
2024/03/21 04:07:31;;;;;;;7.30;4.40;;;8.60;98.00;;;;;;5052949;28;20462;-65
2024/03/21 04:09:57;;;;;;;6.40;3.93;;;8.80;98.00;;;;;;5051844;28;20485;-65
2024/03/21 04:12:24;;;;;;;7.93;4.67;;;8.90;98.00;;;;;;5051703;28;20573;-65
2024/03/21 04:14:52;;;;;;;7.70;4.20;;;9.10;98.00;;;;;;5051585;28;20802;-66
2024/03/21 04:17:20;;;;;;;8.13;4.40;;;9.20;98.00;;;;;;5052818;28;20465;-65
2024/03/21 04:19:46;;;;;;;10.43;4.50;;;9.20;98.00;;;;;;5052807;28;20450;-65
2024/03/21 04:22:15;;;;;;;10.60;4.90;;;9.10;98.00;;;;;;5052617;28;20482;-65
2024/03/21 04:24:41;;;;;;;10.83;4.10;;;8.90;98.00;;;;;;5052430;28;20458;-65
2024/03/21 04:27:09;;;;;;;7.00;3.87;;;8.90;98.00;;;;;;5053077;28;20491;-65
2024/03/21 04:29:35;;;;;;;8.37;4.03;;;8.80;98.00;;;;;;5052847;28;20458;-65
2024/03/21 04:32:02;;;;;;;7.53;4.70;;;8.70;98.00;;;;;;5052744;28;20469;-65
2024/03/21 04:34:28;;;;;;;9.50;4.63;;;8.50;98.00;;;;;;5052694;28;20463;-65
2024/03/21 04:36:55;;;;;;;7.97;4.30;;;8.40;98.00;;;;;;5052657;28;20462;-65
2024/03/21 04:39:26;;;;;;;12.07;4.30;;;8.30;98.00;;;;;;5052491;28;20499;-65
2024/03/21 04:41:55;;;;;;;8.30;4.20;;;8.30;98.00;;;;;;5052298;28;20445;-65
2024/03/21 04:44:22;;;;;;;6.80;4.30;;;8.40;98.00;;;;;;5052222;28;20546;-65
2024/03/21 04:46:51;;;;;;;9.03;4.60;;;8.30;98.00;;;;;;5052261;28;20450;-65
2024/03/21 04:49:17;;;;;;;8.43;4.50;;;8.30;98.00;;;;;;5050906;28;20985;-65
2024/03/21 04:51:44;;;;;;;7.80;4.40;;;8.40;98.00;;;;;;5052134;28;20552;-65
2024/03/21 04:54:10;;;;;;;7.73;4.40;;;8.50;98.00;;;;;;5052075;28;20442;-65
2024/03/21 04:56:39;;;;;;;7.80;4.10;;;8.50;98.00;;;;;;5052120;28;20828;-65
2024/03/21 04:59:05;;;;;;;7.07;3.77;;;8.60;98.00;;;;;;5052137;28;20503;-65
2024/03/21 05:01:32;;;;;;;6.17;3.77;;;8.70;98.00;;;;;;5051862;28;20596;-65
2024/03/21 05:03:58;;;;;;;10.10;4.47;;;8.50;98.00;;;;;;5050660;28;20486;-65
2024/03/21 05:06:25;;;;;;;6.20;3.57;;;8.50;98.00;;;;;;5051742;28;20541;-65
2024/03/21 05:08:51;;;;;;;8.73;4.40;;;8.60;98.00;;;;;;5050653;28;20450;-65
2024/03/21 05:11:19;;;;;;;8.60;4.53;;;8.60;98.00;;;;;;5051562;28;20496;-65
2024/03/21 05:13:49;;;;;;;5.77;4.00;;;8.40;98.00;;;;;;5051811;28;20496;-64
2024/03/21 05:16:17;;;;;;;5.70;3.57;;;8.40;98.00;;;;;;5051588;28;21057;-65
2024/03/21 05:18:44;;;;;;;6.60;4.20;;;8.50;98.00;;;;;;5051664;28;20453;-65
2024/03/21 05:21:12;;;;;;;7.20;4.43;;;8.60;98.00;;;;;;5033547;28;20462;-65
2024/03/21 05:23:40;;;;;;;8.27;4.17;;;8.60;98.00;;;;;;5051519;28;20488;-66
2024/03/21 05:26:07;;;;;;;7.97;4.43;;;8.60;98.00;;;;;;5051100;28;20451;-65
2024/03/21 05:28:33;;;;;;;8.97;4.20;;;8.60;98.00;;;;;;5051346;28;20960;-65
2024/03/21 05:31:09;;;;;;;7.93;4.30;;;8.50;98.00;;;;;;5051285;28;20496;-65
2024/03/21 05:33:35;;;;;;;8.53;4.10;;;8.40;98.00;;;;;;5051253;28;20484;-65
2024/03/21 05:36:02;;;;;;;8.97;4.60;;;8.30;98.00;;;;;;5050760;28;20487;-65
2024/03/21 05:38:28;;;;;;;7.83;4.53;;;8.30;98.00;;;;;;5051282;28;20459;-65
2024/03/21 05:40:55;;;;;;;10.20;4.80;;;8.40;98.00;;;;;;5051247;28;20469;-65
2024/03/21 05:43:21;;;;;;;10.20;4.60;;;8.50;98.00;;;;;;5050665;28;20496;-65
2024/03/21 05:45:48;;;;;;;9.40;4.73;;;8.60;98.00;;;;;;5049849;28;20484;-65
2024/03/21 05:48:16;;;;;;;9.33;4.50;;;8.60;98.00;;;;;;5049986;28;20452;-65
2024/03/21 05:50:44;;;;;;;8.97;4.50;;;8.70;98.00;;;;;;5051276;28;20539;-65
2024/03/21 05:53:09;;;;;;;7.03;3.90;;;8.80;98.00;;;;;;5050964;28;20481;-65
2024/03/21 05:55:39;;;;;;;6.27;4.47;;;8.80;98.00;;;;;;5051092;28;20544;-65
2024/03/21 05:58:05;;;;;;;7.80;4.17;;;8.70;98.00;;;;;;5033545;28;20486;-65
2024/03/21 06:00:32;;;;;;;12.20;5.10;;;8.70;98.00;;;;;;5050976;28;20454;-65
2024/03/21 06:02:58;;;;;;;8.50;4.37;;;8.60;98.00;;;;;;5049730;28;21036;-65
2024/03/21 06:05:28;;;;;;;7.70;4.43;;;8.50;98.00;;;;;;5050563;28;20462;-65
2024/03/21 06:07:54;;;;;;;8.50;4.30;;;8.60;98.00;;;;;;5050940;28;20889;-65
2024/03/21 06:10:21;;;;;;;7.93;4.70;;;8.80;98.00;;;;;;5050785;28;20520;-65
2024/03/21 06:12:47;;;;;;;9.00;4.80;;;8.80;98.00;;;;;;5051031;28;20453;-65
2024/03/21 06:15:14;;;;;;;8.17;4.53;;;8.90;98.00;;;;;;5050860;28;20501;-65
2024/03/21 06:17:41;;;;;;;10.03;5.00;;;8.90;98.00;;;;;;5051309;28;20566;-65
2024/03/21 06:20:09;;;;;;;9.50;4.37;;;9.00;98.00;;;;;;5049703;28;20468;-65
2024/03/21 06:22:41;;;;;;;8.00;4.60;;;9.00;98.00;;;;;;5050847;28;21034;-65
2024/03/21 06:25:09;;;;;;;11.10;5.00;;;9.00;98.00;;;;;;5050930;28;20457;-65
2024/03/21 06:27:35;;;;;;;10.20;5.10;;;9.10;98.00;;;;;;5051031;28;20448;-65
2024/03/21 06:30:02;;;;;;;8.60;4.50;;;9.20;98.00;;;;;;5050710;28;20458;-65
2024/03/21 06:32:28;;;;;;;11.93;5.17;;;9.30;98.00;;;;;;5050766;28;20449;-65
2024/03/21 06:34:56;;;;;;;8.10;5.07;;;9.40;98.00;;;;;;5050697;28;20980;-65
2024/03/21 06:37:22;;;;;;;11.00;4.90;;;9.50;98.00;;;;;;5050572;28;20454;-65
2024/03/21 06:39:51;;;;;;;8.10;5.20;;;9.60;98.00;;;;;;5050807;28;20497;-65
2024/03/21 06:42:17;;;;;;;10.67;4.70;;;9.60;98.00;;;;;;5050544;28;20456;-65
2024/03/21 06:44:44;;;;;;;11.93;5.27;;;9.50;98.00;;;;;;5050621;28;20524;-65
2024/03/21 06:47:10;;;;;;;13.67;5.47;;;9.60;98.00;;;;;;5051916;28;20445;-65
2024/03/21 06:49:37;;;;;;;14.70;5.50;;;9.70;98.00;;;;;;5054473;28;20496;-65
2024/03/21 06:52:04;;;;;;;13.63;6.53;;;9.80;98.00;;;;;;5054369;28;20822;-65
2024/03/21 06:54:34;;;;;;;10.60;5.30;;;9.70;98.00;;;;;;5054336;28;20455;-65
2024/03/21 06:57:01;;;;;;;12.13;5.40;;;9.60;98.00;;;;;;5053127;28;20456;-65
2024/03/21 06:59:28;;;;;;;9.73;5.50;;;9.60;98.00;;;;;;5054479;28;20950;-62
2024/03/21 07:01:56;;;;;;;11.30;5.90;;;9.60;98.00;;;;;;5054240;28;20450;-62
2024/03/21 07:04:23;;;;;;;12.03;6.00;;;9.60;98.00;;;;;;5052899;28;20492;-62
2024/03/21 07:06:49;;;;;;;13.20;6.00;;;9.70;98.00;;;;;;5054315;28;20449;-62
2024/03/21 07:09:16;;;;;;;11.00;5.50;;;9.80;98.00;;;;;;5054187;28;20461;-62
2024/03/21 07:11:42;;;;;;;10.80;6.10;;;9.90;98.00;;;;;;5054204;28;20538;-62
2024/03/21 07:14:11;;;;;;;13.00;6.57;;;9.90;98.00;;;;;;5054102;28;20450;-62
2024/03/21 07:16:37;;;;;;;11.00;5.37;;;10.00;98.00;;;;;;5053929;28;20517;-62
2024/03/21 07:19:04;;;;;;;11.73;5.57;;;10.10;98.00;;;;;;5052992;28;20480;-62
2024/03/21 07:21:30;;;;;;;11.43;5.23;;;10.20;98.00;;;;;;5052745;28;20462;-62
2024/03/21 07:23:57;;;;;;;11.27;5.50;;;10.40;98.00;;;;;;5053929;28;20575;-62
2024/03/21 07:26:23;;;;;;;10.90;5.20;;;10.50;98.00;;;;;;5052597;28;20995;-62
2024/03/21 07:28:51;;;;;;;10.37;5.80;;;10.60;98.00;;;;;;5052697;28;20466;-62
2024/03/21 07:31:18;;;;;;;13.93;5.63;;;10.80;98.00;;;;;;5053323;28;20464;-62
2024/03/21 07:33:51;;;;;;;10.07;5.50;;;10.90;98.00;;;;;;5053849;28;20454;-62
2024/03/21 07:36:17;;;;;;;10.20;5.63;;;11.00;98.00;;;;;;5053614;28;20466;-61
2024/03/21 07:38:44;;;;;;;10.43;5.30;;;11.00;98.00;;;;;;5053681;28;20560;-62
2024/03/21 07:41:12;;;;;;;8.77;5.10;;;11.00;98.00;;;;;;5053430;28;20570;-61
2024/03/21 07:43:40;;;;;;;10.77;5.20;;;11.10;98.00;;;;;;5053519;28;21082;-61
2024/03/21 07:46:07;;;;;;;7.53;4.60;;;11.00;98.00;;;;;;5053237;28;20544;-62
2024/03/21 07:48:36;;;;;;;8.97;5.13;;;11.00;98.00;;;;;;5053657;28;20584;-61
2024/03/21 07:51:02;;;;;;;8.93;4.80;;;11.00;98.00;;;;;;5053330;28;20463;-62
2024/03/21 07:53:30;;;;;;;8.97;5.17;;;11.20;98.00;;;;;;5053131;28;20462;-61
2024/03/21 07:55:56;;;;;;;7.40;4.40;;;11.40;98.00;;;;;;5053409;28;20486;-62
2024/03/21 07:58:24;;;;;;;7.80;5.00;;;11.50;98.00;;;;;;5052728;28;20495;-62
2024/03/21 08:00:50;;;;;;;7.40;4.90;;;11.50;98.00;;;;;;5053347;28;20452;-62
2024/03/21 08:03:17;;;;;;;10.00;5.70;;;11.70;98.00;;;;;;5053219;28;20515;-62
2024/03/21 08:05:44;;;;;;;11.43;5.80;;;11.80;98.00;;;;;;5053468;28;20461;-62
2024/03/21 08:08:11;;;;;;;9.60;5.50;;;11.80;98.00;;;;;;5053453;28;21037;-62
2024/03/21 08:10:37;;;;;;;9.23;4.83;;;12.10;98.00;;;;;;5053625;28;20884;-62
2024/03/21 08:13:05;;;;;;;11.07;5.13;;;12.30;98.00;;;;;;5053101;28;20542;-62
2024/03/21 08:15:31;;;;;;;8.33;4.87;;;12.40;98.00;;;;;;5052951;28;20457;-62
2024/03/21 08:17:59;;;;;;;9.67;5.67;;;12.60;98.00;;;;;;5052920;28;20558;-62
2024/03/21 08:20:25;;;;;;;11.47;5.70;;;12.60;98.00;;;;;;5051640;28;20901;-62
2024/03/21 08:22:56;;;;;;;11.20;5.10;;;12.70;98.00;;;;;;5046852;28;20527;-62
2024/03/21 08:25:22;;;;;;;9.30;5.10;;;12.70;98.00;;;;;;5031998;28;20468;-62
2024/03/21 08:27:49;;;;;;;10.10;5.23;;;12.70;98.00;;;;;;5047704;28;20461;-62
2024/03/21 08:30:16;;;;;;;9.20;5.53;;;12.80;98.00;;;;;;5033138;28;20480;-62
2024/03/21 08:32:43;;;;;;;12.03;5.60;;;12.80;98.00;;;;;;5033168;28;20467;-62
2024/03/21 08:35:09;;;;;;;9.07;5.57;;;12.80;98.00;;;;;;5032581;28;20461;-62
2024/03/21 08:37:36;;;;;;;9.60;5.60;;;12.80;98.00;;;;;;5033228;28;20471;-62
2024/03/21 08:40:04;;;;;;;11.13;5.60;;;12.60;98.00;;;;;;5033359;28;20464;-61
2024/03/21 08:42:32;;;;;;;11.50;6.30;;;12.70;98.00;;;;;;5032781;28;20469;-62
2024/03/21 08:44:58;;;;;;;14.13;6.60;;;12.90;98.00;;;;;;5033124;28;20492;-62
2024/03/21 08:47:25;;;;;;;13.00;7.70;;;13.00;98.00;;;;;;5032924;28;20851;-62
2024/03/21 08:49:51;;;;;;;12.13;6.10;;;13.30;98.00;;;;;;5033238;28;20972;-62
2024/03/21 08:52:19;;;;;;;8.83;5.43;;;13.40;98.00;;;;;;5032988;28;20468;-62
2024/03/21 08:54:45;;;;;;;9.43;5.90;;;13.60;98.00;;;;;;5031493;28;20986;-62
2024/03/21 08:57:15;;;;;;;9.27;5.13;;;13.70;98.00;;;;;;5032571;28;20466;-62
2024/03/21 08:59:41;;;;;;;7.63;3.43;;;13.90;98.00;;;;;;5033058;28;20463;-63
2024/03/21 09:02:10;;;;;;;5.30;3.17;;;14.00;98.00;;;;;;5032727;28;21033;-63
2024/03/21 09:04:36;;;;;;;4.00;3.10;;;14.40;98.00;;;;;;5032844;28;20966;-63
2024/03/21 09:07:06;;;;;;;7.73;3.70;;;14.90;98.00;;;;;;5032644;28;20973;-63
2024/03/21 09:09:34;;;;;;;10.13;4.50;;;15.40;98.00;;;;;;5046698;28;20454;-63
2024/03/21 09:12:01;;;;;;;9.70;4.70;;;15.50;98.00;;;;;;5032605;28;20463;-61
2024/03/21 09:14:29;;;;;;;10.60;5.60;;;15.70;98.00;;;;;;5032698;28;20470;-61
2024/03/21 09:16:56;;;;;;;9.23;5.70;;;15.80;98.00;;;;;;5032626;28;20462;-62
2024/03/21 09:19:22;;;;;;;11.17;5.60;;;15.50;98.00;;;;;;5032520;28;20528;-61
2024/03/21 09:21:49;;;;;;;12.43;6.07;;;15.30;98.00;;;;;;5032364;28;20462;-61
2024/03/21 09:24:15;;;;;;;8.63;5.23;;;15.20;98.00;;;;;;5032371;28;20486;-60
2024/03/21 09:26:43;;;;;;;13.03;5.90;;;15.10;98.00;;;;;;5032399;28;20459;-61
2024/03/21 09:29:09;;;;;;;11.30;5.93;;;15.00;98.00;;;;;;5032316;28;20945;-61
2024/03/21 09:31:39;;;;;;;18.87;5.50;;;14.90;98.00;;;;;;5032154;28;20548;-61
2024/03/21 09:34:05;;;;;;;14.50;5.70;;;14.90;98.00;;;;;;5032235;28;20447;-61
2024/03/21 09:36:32;;;;;;;7.47;5.00;;;15.20;98.00;;;;;;5032343;28;20485;-61
2024/03/21 09:38:58;;;;;;;8.30;4.90;;;15.60;98.00;;;;;;5032286;28;20454;-61
2024/03/21 09:41:26;;;;;;;8.97;4.50;;;15.90;98.00;;;;;;5031057;28;20546;-61
2024/03/21 09:43:52;;;;;;;8.93;5.10;;;16.10;98.00;;;;;;5031443;28;20486;-60
2024/03/21 09:46:20;;;;;;;8.33;5.07;;;16.20;98.00;;;;;;5031281;28;20976;-62
2024/03/21 09:48:47;;;;;;;7.30;4.57;;;16.20;98.00;;;;;;5031724;28;20461;-61
2024/03/21 09:51:20;;;;;;;12.57;4.97;;;16.30;98.00;;;;;;5032147;28;20493;-61
2024/03/21 09:53:46;;;;;;;10.73;5.10;;;16.60;98.00;;;;;;5032310;28;20447;-62
2024/03/21 09:56:16;;;;;;;9.27;5.17;;;16.70;98.00;;;;;;5032006;28;20541;-61
2024/03/21 09:58:42;;;;;;;10.20;5.27;;;16.70;98.00;;;;;;5031795;28;20457;-61
2024/03/21 10:01:20;;;;;;;8.63;4.70;;;16.50;98.00;;;;;;5031646;28;21031;-61
2024/03/21 10:03:52;;;;;;;9.80;5.20;;;16.40;98.00;;;;;;5031776;28;20490;-62
2024/03/21 10:06:19;;;;;;;8.10;5.30;;;16.10;98.00;;;;;;5046682;28;20527;-61
2024/03/21 10:08:45;;;;;;;13.20;6.37;;;15.90;98.00;;;;;;5032194;28;20856;-61
2024/03/21 10:11:13;;;;;;;10.30;5.67;;;15.70;98.00;;;;;;5031655;28;20481;-62
2024/03/21 10:13:41;;;;;;;10.30;6.30;;;15.60;98.00;;;;;;5031275;28;20483;-61
2024/03/21 10:16:11;;;;;;;13.10;6.23;;;15.60;98.00;;;;;;5046899;28;20462;-61
2024/03/21 10:18:39;;;;;;;11.20;6.17;;;15.70;98.00;;;;;;5031903;28;20876;-60
2024/03/21 10:21:14;;;;;;;10.33;5.73;;;15.70;98.00;;;;;;5033304;28;20466;-60
2024/03/21 10:23:41;;;;;;;13.07;6.47;;;15.60;98.00;;;;;;5035767;28;20478;-60
2024/03/21 10:26:14;;;;;;;16.13;6.10;;;15.60;98.00;;;;;;5034731;28;20963;-61
2024/03/21 10:28:41;;;;;;;12.03;6.00;;;15.80;98.00;;;;;;5034742;28;20454;-62
2024/03/21 10:31:13;;;;;;;13.10;6.87;;;15.90;98.00;;;;;;5035651;28;20462;-61
2024/03/21 10:33:42;;;;;;;12.27;6.50;;;16.10;98.00;;;;;;5035185;28;20486;-61
2024/03/21 10:36:13;;;;;;;11.30;6.53;;;16.40;98.00;;;;;;5034011;28;20514;-61
2024/03/21 10:38:39;;;;;;;13.00;6.93;;;16.70;98.00;;;;;;5033655;28;20485;-61
2024/03/21 10:41:11;;;;;;;12.87;7.13;;;17.10;98.00;;;;;;5032434;28;20468;-60
2024/03/21 10:43:41;;;;;;;14.60;7.47;;;17.10;98.00;;;;;;5033627;28;20746;-61
2024/03/21 10:46:11;;;;;;;15.67;7.70;;;17.10;98.00;;;;;;5049021;28;20966;-61
2024/03/21 10:48:40;;;;;;;16.63;8.20;;;17.00;98.00;;;;;;5033676;28;20466;-61
2024/03/21 10:51:12;;;;;;;19.33;9.20;;;16.90;98.00;;;;;;5033851;28;20458;-61
2024/03/21 10:53:38;;;;;;;16.67;8.77;;;16.80;98.00;;;;;;5035070;28;20458;-61
2024/03/21 10:56:07;;;;;;;16.53;8.00;;;16.80;98.00;;;;;;5035312;28;20523;-61
2024/03/21 10:58:45;;;;;;;23.23;9.20;;;17.00;98.00;;;;;;5035329;28;20474;-61
2024/03/21 11:01:12;;;;;;;18.23;8.23;;;16.90;98.00;;;;;;5050433;28;20462;-61
2024/03/21 11:03:50;;;;;;;21.40;8.30;;;17.10;98.00;;;;;;5034894;28;20854;-62
2024/03/21 11:06:21;;;;;;;14.53;7.83;;;17.60;98.00;;;;;;5034418;28;20504;-64
2024/03/21 11:08:53;;;;;;;17.83;8.57;;;18.10;98.00;;;;;;5050465;28;20459;-61
2024/03/21 11:11:20;;;;;;;16.67;8.27;;;18.50;98.00;;;;;;5035058;28;20471;-61
2024/03/21 11:13:46;;;;;;;16.37;8.80;;;18.70;98.00;;;;;;5035311;28;20451;-61
2024/03/21 11:16:13;;;;;;;16.20;8.50;;;18.40;98.00;;;;;;5034588;28;20516;-62
2024/03/21 11:18:40;;;;;;;19.23;9.60;;;18.00;98.00;;;;;;5034973;28;20458;-61
2024/03/21 11:21:10;;;;;;;18.97;10.00;;;17.70;98.00;;;;;;5035060;28;20854;-61
2024/03/21 11:23:38;;;;;;;18.77;8.50;;;17.90;98.00;;;;;;5034983;28;20485;-61
2024/03/21 11:26:08;;;;;;;21.77;10.93;;;17.80;98.00;;;;;;5034830;28;20837;-61
2024/03/21 11:28:34;;;;;;;19.73;10.80;;;18.00;98.00;;;;;;5033721;28;20834;-61
2024/03/21 11:31:02;;;;;;;20.40;10.00;;;17.80;98.00;;;;;;5034686;28;20477;-61
2024/03/21 11:33:29;;;;;;;20.80;10.90;;;18.00;98.00;;;;;;5033246;28;20458;-62
2024/03/21 11:35:56;;;;;;;21.80;10.23;;;18.40;98.00;;;;;;5050055;28;20458;-61
2024/03/21 11:38:22;;;;;;;18.37;9.67;;;18.40;98.00;;;;;;5034718;28;20466;-64
2024/03/21 11:40:51;;;;;;;18.87;8.73;;;18.70;98.00;;;;;;5034214;28;20953;-61
2024/03/21 11:43:17;;;;;;;16.13;8.97;;;18.90;98.00;;;;;;5033417;28;21109;-61
2024/03/21 11:45:47;;;;;;;22.73;8.83;;;18.70;98.00;;;;;;5034287;28;20983;-61
2024/03/21 11:48:14;;;;;;;17.83;8.63;;;18.40;98.00;;;;;;5034685;28;20461;-61
2024/03/21 11:50:42;;;;;;;17.20;9.30;;;18.30;98.00;;;;;;5034691;28;20805;-62
2024/03/21 11:53:09;;;;;;;17.10;8.60;;;18.30;98.00;;;;;;5034586;28;20508;-61
2024/03/21 11:55:36;;;;;;;18.83;7.80;;;18.60;98.00;;;;;;5033941;28;20533;-61
2024/03/21 11:58:04;;;;;;;20.10;9.23;;;18.60;98.00;;;;;;5034011;28;20455;-61
2024/03/21 12:00:31;;;;;;;21.60;10.23;;;18.40;98.00;;;;;;5034085;28;20463;-61
2024/03/21 12:02:57;;;;;;;19.43;11.03;;;18.20;98.00;;;;;;5034013;28;20508;-61
2024/03/21 12:05:24;;;;;;;19.37;9.93;;;18.10;98.00;;;;;;5049060;28;20533;-61
2024/03/21 12:07:50;;;;;;;17.70;9.50;;;18.10;98.00;;;;;;5033847;28;20505;-61
2024/03/21 12:10:18;;;;;;;20.00;10.47;;;18.10;98.00;;;;;;5033896;28;20945;-61
2024/03/21 12:12:44;;;;;;;21.63;11.17;;;18.10;98.00;;;;;;5033863;28;20872;-61
2024/03/21 12:15:14;;;;;;;19.10;10.40;;;18.00;98.00;;;;;;5033564;28;20830;-61
2024/03/21 12:17:40;;;;;;;20.30;11.70;;;18.60;98.00;;;;;;5033714;28;21019;-62
2024/03/21 12:20:08;;;;;;;20.70;11.10;;;19.00;98.00;;;;;;5033694;28;20498;-62
2024/03/21 12:22:34;;;;;;;21.77;11.80;;;19.30;98.00;;;;;;5033573;28;20447;-61
2024/03/21 12:25:01;;;;;;;20.90;12.30;;;19.10;98.00;;;;;;5033236;28;21000;-62
2024/03/21 12:27:28;;;;;;;26.23;12.63;;;18.80;98.00;;;;;;5033569;28;20459;-61
2024/03/21 12:29:55;;;;;;;29.47;13.90;;;18.40;98.00;;;;;;5033569;28;21024;-61
2024/03/21 12:32:22;;;;;;;29.50;14.90;;;17.90;98.00;;;;;;5033414;28;20458;-61
2024/03/21 12:34:49;;;;;;;29.80;13.90;;;17.50;98.00;;;;;;5033379;28;20498;-61
2024/03/21 12:37:15;;;;;;;29.30;14.47;;;17.30;98.00;;;;;;5033434;28;20955;-62
2024/03/21 12:39:43;;;;;;;30.30;14.23;;;17.60;98.00;;;;;;5033421;28;20473;-62
2024/03/21 12:42:11;;;;;;;29.57;14.60;;;18.00;98.00;;;;;;5033186;28;20937;-61
2024/03/21 12:44:39;;;;;;;27.33;13.70;;;18.30;98.00;;;;;;5033064;28;20988;-62
2024/03/21 12:47:05;;;;;;;34.90;13.80;;;18.70;98.00;;;;;;5048220;28;20465;-61
2024/03/21 12:49:35;;;;;;;31.70;14.00;;;19.10;98.00;;;;;;5033239;28;20473;-62
2024/03/21 12:52:02;;;;;;;31.10;14.83;;;19.00;98.00;;;;;;5032963;28;20459;-62